< < Back
Terminal Aerodrome Forecast


Current Version              Previous Versions:   1  2  3  4  5  6  7  8  9  

Terminal Aerodrome Forecast

632
FTUS42 KTAE 250520
TAFVLD
TAF
KVLD 250520Z 2506/2606 VRB03KT P6SM FEW250
     FM251700 15006KT P6SM SCT040
     FM260200 VRB03KT P6SM FEW250=

Latest METAR

113
SAUS70 KWBC 250756
MTRVLD
METAR KVLD 250753Z AUTO 00000KT 9SM CLR 23/23 A3003 RMK AO2 SLP173
T02330233


USA.gov is the U.S. government's official web portal to all federal, state and local government web resources and services.